sensor_id;sensor_type;location;lat;lon;timestamp;pressure;altitude;pressure_sealevel;temperature;humidity
46111;BME280;31849;55.992;37.252;2022-12-05T00:01:57;101909.22;;;-10.70;60.42
46111;BME280;31849;55.992;37.252;2022-12-05T00:07:01;101917.75;;;-10.90;60.61
46111;BME280;31849;55.992;37.252;2022-12-05T00:12:06;101900.16;;;-10.90;60.98
46111;BME280;31849;55.992;37.252;2022-12-05T00:17:09;101903.00;;;-10.94;61.10
46111;BME280;31849;55.992;37.252;2022-12-05T00:22:13;101896.25;;;-10.88;60.90
46111;BME280;31849;55.992;37.252;2022-12-05T00:27:18;101889.84;;;-10.71;60.02
46111;BME280;31849;55.992;37.252;2022-12-05T00:32:21;101888.34;;;-10.84;60.39
46111;BME280;31849;55.992;37.252;2022-12-05T00:37:25;101884.41;;;-10.82;60.17
46111;BME280;31849;55.992;37.252;2022-12-05T00:42:30;101879.38;;;-10.82;60.45
46111;BME280;31849;55.992;37.252;2022-12-05T00:47:33;101875.03;;;-10.90;60.01
46111;BME280;31849;55.992;37.252;2022-12-05T00:52:37;101860.66;;;-10.98;60.51
46111;BME280;31849;55.992;37.252;2022-12-05T00:57:42;101863.00;;;-11.00;60.31
46111;BME280;31849;55.992;37.252;2022-12-05T01:02:45;101854.88;;;-11.04;60.21
46111;BME280;31849;55.992;37.252;2022-12-05T01:07:49;101847.47;;;-11.17;60.17
46111;BME280;31849;55.992;37.252;2022-12-05T01:12:54;101847.31;;;-11.11;60.26
46111;BME280;31849;55.992;37.252;2022-12-05T01:17:57;101844.16;;;-11.30;61.26
46111;BME280;31849;55.992;37.252;2022-12-05T01:23:00;101828.41;;;-11.22;60.73
46111;BME280;31849;55.992;37.252;2022-12-05T01:28:25;101825.38;;;-11.20;60.26
46111;BME280;31849;55.992;37.252;2022-12-05T01:33:29;101822.34;;;-11.17;60.15
46111;BME280;31849;55.992;37.252;2022-12-05T01:38:32;101816.41;;;-11.25;60.62
46111;BME280;31849;55.992;37.252;2022-12-05T01:43:59;101811.00;;;-11.21;60.30
46111;BME280;31849;55.992;37.252;2022-12-05T01:49:06;101813.34;;;-11.22;60.32
46111;BME280;31849;55.992;37.252;2022-12-05T01:54:13;101805.56;;;-11.31;60.63
46111;BME280;31849;55.992;37.252;2022-12-05T01:59:20;101810.41;;;-11.33;61.03
46111;BME280;31849;55.992;37.252;2022-12-05T02:04:24;101814.16;;;-11.36;60.55
46111;BME280;31849;55.992;37.252;2022-12-05T02:09:28;101808.97;;;-11.38;61.11
46111;BME280;31849;55.992;37.252;2022-12-05T02:14:42;101804.59;;;-11.53;61.32
46111;BME280;31849;55.992;37.252;2022-12-05T02:19:54;101789.91;;;-11.50;60.66
46111;BME280;31849;55.992;37.252;2022-12-05T02:25:38;101797.56;;;-11.56;61.03
46111;BME280;31849;55.992;37.252;2022-12-05T02:30:52;101793.81;;;-11.52;61.29
46111;BME280;31849;55.992;37.252;2022-12-05T02:36:03;101791.66;;;-11.56;61.12
46111;BME280;31849;55.992;37.252;2022-12-05T02:41:13;101779.53;;;-11.39;61.12
46111;BME280;31849;55.992;37.252;2022-12-05T02:46:22;101784.00;;;-11.43;60.86
46111;BME280;31849;55.992;37.252;2022-12-05T02:51:28;101775.13;;;-11.61;61.48
46111;BME280;31849;55.992;37.252;2022-12-05T02:56:34;101775.06;;;-11.69;61.38
46111;BME280;31849;55.992;37.252;2022-12-05T03:01:43;101768.19;;;-11.50;61.13
46111;BME280;31849;55.992;37.252;2022-12-05T03:06:50;101766.84;;;-11.68;61.61
46111;BME280;31849;55.992;37.252;2022-12-05T03:12:00;101761.97;;;-11.73;61.20
46111;BME280;31849;55.992;37.252;2022-12-05T03:17:12;101761.09;;;-11.74;61.33
46111;BME280;31849;55.992;37.252;2022-12-05T03:22:23;101747.25;;;-11.77;61.95
46111;BME280;31849;55.992;37.252;2022-12-05T03:27:36;101740.53;;;-11.91;62.06
46111;BME280;31849;55.992;37.252;2022-12-05T03:32:48;101742.59;;;-11.74;61.41
46111;BME280;31849;55.992;37.252;2022-12-05T03:37:59;101746.03;;;-11.74;60.64
46111;BME280;31849;55.992;37.252;2022-12-05T03:43:08;101739.09;;;-11.89;62.07
46111;BME280;31849;55.992;37.252;2022-12-05T03:48:19;101732.53;;;-11.81;61.94
46111;BME280;31849;55.992;37.252;2022-12-05T03:53:27;101741.94;;;-11.66;61.14
46111;BME280;31849;55.992;37.252;2022-12-05T03:58:35;101737.94;;;-11.78;61.24
46111;BME280;31849;55.992;37.252;2022-12-05T04:03:44;101726.59;;;-11.82;61.42
46111;BME280;31849;55.992;37.252;2022-12-05T04:08:52;101715.81;;;-11.95;60.97
46111;BME280;31849;55.992;37.252;2022-12-05T04:13:59;101714.03;;;-11.89;61.45
46111;BME280;31849;55.992;37.252;2022-12-05T04:19:10;101709.00;;;-11.96;61.28
46111;BME280;31849;55.992;37.252;2022-12-05T04:24:19;101697.84;;;-12.06;61.78
46111;BME280;31849;55.992;37.252;2022-12-05T04:29:53;101691.78;;;-12.00;61.84
46111;BME280;31849;55.992;37.252;2022-12-05T04:35:06;101687.09;;;-12.05;61.21
46111;BME280;31849;55.992;37.252;2022-12-05T04:40:15;101669.44;;;-12.19;61.95
46111;BME280;31849;55.992;37.252;2022-12-05T04:45:21;101685.81;;;-12.08;60.99
46111;BME280;31849;55.992;37.252;2022-12-05T04:50:31;101684.97;;;-12.01;61.12
46111;BME280;31849;55.992;37.252;2022-12-05T04:55:36;101681.19;;;-12.05;61.00
46111;BME280;31849;55.992;37.252;2022-12-05T05:00:46;101679.09;;;-11.95;60.51
46111;BME280;31849;55.992;37.252;2022-12-05T05:05:54;101680.31;;;-11.98;60.70
46111;BME280;31849;55.992;37.252;2022-12-05T05:11:09;101678.31;;;-12.01;61.83
46111;BME280;31849;55.992;37.252;2022-12-05T05:16:16;101676.00;;;-11.92;61.13
46111;BME280;31849;55.992;37.252;2022-12-05T05:21:23;101659.38;;;-11.92;61.56
46111;BME280;31849;55.992;37.252;2022-12-05T05:26:28;101667.50;;;-11.73;61.67
46111;BME280;31849;55.992;37.252;2022-12-05T05:31:32;101665.97;;;-11.51;60.43
46111;BME280;31849;55.992;37.252;2022-12-05T05:36:37;101666.91;;;-11.36;60.38
46111;BME280;31849;55.992;37.252;2022-12-05T05:41:41;101659.75;;;-11.33;60.67
46111;BME280;31849;55.992;37.252;2022-12-05T05:46:45;101657.63;;;-11.29;59.82
46111;BME280;31849;55.992;37.252;2022-12-05T05:51:50;101671.44;;;-11.26;60.21
46111;BME280;31849;55.992;37.252;2022-12-05T05:56:53;101666.38;;;-11.33;60.14
46111;BME280;31849;55.992;37.252;2022-12-05T06:01:57;101666.25;;;-11.20;59.45
46111;BME280;31849;55.992;37.252;2022-12-05T06:07:02;101660.72;;;-10.96;59.34
46111;BME280;31849;55.992;37.252;2022-12-05T06:12:06;101655.16;;;-10.72;58.49
46111;BME280;31849;55.992;37.252;2022-12-05T06:17:09;101653.00;;;-10.69;58.41
46111;BME280;31849;55.992;37.252;2022-12-05T06:22:14;101650.84;;;-10.58;58.83
46111;BME280;31849;55.992;37.252;2022-12-05T06:27:17;101655.06;;;-10.14;57.92
46111;BME280;31849;55.992;37.252;2022-12-05T06:32:21;101651.44;;;-9.50;57.58
46111;BME280;31849;55.992;37.252;2022-12-05T06:37:26;101641.34;;;-6.47;52.54
46111;BME280;31849;55.992;37.252;2022-12-05T06:42:30;101635.13;;;-6.24;51.26
46111;BME280;31849;55.992;37.252;2022-12-05T06:47:33;101639.56;;;-7.31;51.76
46111;BME280;31849;55.992;37.252;2022-12-05T06:52:38;101641.44;;;-8.09;53.32
46111;BME280;31849;55.992;37.252;2022-12-05T06:57:41;101637.06;;;-8.19;53.71
46111;BME280;31849;55.992;37.252;2022-12-05T07:02:45;101625.91;;;-7.89;52.83
46111;BME280;31849;55.992;37.252;2022-12-05T07:07:50;101626.06;;;-7.47;52.75
46111;BME280;31849;55.992;37.252;2022-12-05T07:12:54;101630.03;;;-7.74;52.29
46111;BME280;31849;55.992;37.252;2022-12-05T07:17:58;101637.28;;;-7.61;52.68
46111;BME280;31849;55.992;37.252;2022-12-05T07:23:03;101630.09;;;-7.00;51.34
46111;BME280;31849;55.992;37.252;2022-12-05T07:28:06;101628.22;;;-7.59;51.96
46111;BME280;31849;55.992;37.252;2022-12-05T07:33:10;101621.16;;;-7.30;51.36
46111;BME280;31849;55.992;37.252;2022-12-05T07:38:15;101620.94;;;-7.40;51.17
46111;BME280;31849;55.992;37.252;2022-12-05T07:43:18;101614.00;;;-7.50;51.86
46111;BME280;31849;55.992;37.252;2022-12-05T07:48:22;101613.34;;;-7.15;51.67
46111;BME280;31849;55.992;37.252;2022-12-05T07:53:27;101602.00;;;-6.94;50.06
46111;BME280;31849;55.992;37.252;2022-12-05T07:58:31;101584.31;;;-5.47;48.49
46111;BME280;31849;55.992;37.252;2022-12-05T08:03:35;101582.63;;;-3.81;47.36
46111;BME280;31849;55.992;37.252;2022-12-05T08:08:40;101578.16;;;-3.25;45.47
46111;BME280;31849;55.992;37.252;2022-12-05T08:13:44;101573.44;;;-4.17;46.27
46111;BME280;31849;55.992;37.252;2022-12-05T08:18:48;101571.84;;;-4.45;46.02
46111;BME280;31849;55.992;37.252;2022-12-05T08:23:53;101570.44;;;-4.13;44.84
46111;BME280;31849;55.992;37.252;2022-12-05T08:28:59;101551.75;;;-3.76;44.79
46111;BME280;31849;55.992;37.252;2022-12-05T08:34:03;101557.59;;;-4.15;45.22
46111;BME280;31849;55.992;37.252;2022-12-05T08:39:10;101555.88;;;-4.44;45.45
46111;BME280;31849;55.992;37.252;2022-12-05T08:44:17;101550.41;;;-4.85;45.50
46111;BME280;31849;55.992;37.252;2022-12-05T08:49:21;101549.19;;;-5.16;45.88
46111;BME280;31849;55.992;37.252;2022-12-05T08:54:26;101537.06;;;-5.01;45.19
46111;BME280;31849;55.992;37.252;2022-12-05T08:59:30;101534.97;;;-5.51;46.19
46111;BME280;31849;55.992;37.252;2022-12-05T09:04:33;101511.13;;;-5.70;46.73
46111;BME280;31849;55.992;37.252;2022-12-05T09:09:38;101521.69;;;-5.48;45.57
46111;BME280;31849;55.992;37.252;2022-12-05T09:14:42;101514.75;;;-5.86;46.18
46111;BME280;31849;55.992;37.252;2022-12-05T09:19:49;101505.19;;;-5.71;45.59
46111;BME280;31849;55.992;37.252;2022-12-05T09:24:54;101492.66;;;-5.69;46.67
46111;BME280;31849;55.992;37.252;2022-12-05T09:29:58;101495.06;;;-5.79;45.73
46111;BME280;31849;55.992;37.252;2022-12-05T09:35:04;101494.81;;;-6.00;46.25
46111;BME280;31849;55.992;37.252;2022-12-05T09:40:14;101475.00;;;-6.04;47.09
46111;BME280;31849;55.992;37.252;2022-12-05T09:45:23;101481.13;;;-6.02;46.38
46111;BME280;31849;55.992;37.252;2022-12-05T09:50:29;101467.00;;;-6.52;47.23
46111;BME280;31849;55.992;37.252;2022-12-05T09:55:43;101469.81;;;-6.49;47.68
46111;BME280;31849;55.992;37.252;2022-12-05T10:00:51;101454.91;;;-6.64;47.85
46111;BME280;31849;55.992;37.252;2022-12-05T10:06:05;101454.31;;;-6.70;47.60
46111;BME280;31849;55.992;37.252;2022-12-05T10:11:18;101453.13;;;-6.82;47.26
46111;BME280;31849;55.992;37.252;2022-12-05T10:16:29;101450.75;;;-6.72;47.38
46111;BME280;31849;55.992;37.252;2022-12-05T10:21:38;101453.53;;;-6.86;48.20
46111;BME280;31849;55.992;37.252;2022-12-05T10:26:48;101447.31;;;-6.73;48.84
46111;BME280;31849;55.992;37.252;2022-12-05T10:31:58;101447.31;;;-6.55;47.62
46111;BME280;31849;55.992;37.252;2022-12-05T10:37:13;101453.44;;;-6.53;46.88
46111;BME280;31849;55.992;37.252;2022-12-05T10:42:22;101415.44;;;-6.97;47.83
46111;BME280;31849;55.992;37.252;2022-12-05T10:47:28;101450.59;;;-6.82;48.54
46111;BME280;31849;55.992;37.252;2022-12-05T10:52:31;101457.69;;;-6.96;48.85
46111;BME280;31849;55.992;37.252;2022-12-05T10:57:36;101456.44;;;-7.08;48.98
46111;BME280;31849;55.992;37.252;2022-12-05T11:02:40;101439.09;;;-6.96;48.74
46111;BME280;31849;55.992;37.252;2022-12-05T11:07:45;101429.50;;;-7.58;48.77
46111;BME280;31849;55.992;37.252;2022-12-05T11:12:54;101415.47;;;-7.48;48.99
46111;BME280;31849;55.992;37.252;2022-12-05T11:18:17;101415.22;;;-7.67;49.84
46111;BME280;31849;55.992;37.252;2022-12-05T11:23:26;101407.81;;;-7.65;49.70
46111;BME280;31849;55.992;37.252;2022-12-05T11:28:33;101402.88;;;-7.72;49.48
46111;BME280;31849;55.992;37.252;2022-12-05T11:33:38;101385.66;;;-7.68;50.18
46111;BME280;31849;55.992;37.252;2022-12-05T11:38:42;101387.03;;;-7.63;50.67
46111;BME280;31849;55.992;37.252;2022-12-05T11:44:04;101339.75;;;-7.97;50.28
46111;BME280;31849;55.992;37.252;2022-12-05T11:49:28;101377.34;;;-7.67;50.29
46111;BME280;31849;55.992;37.252;2022-12-05T11:54:48;101373.00;;;-7.68;50.08
46111;BME280;31849;55.992;37.252;2022-12-05T12:00:18;101376.41;;;-7.76;50.59
46111;BME280;31849;55.992;37.252;2022-12-05T12:05:30;101365.56;;;-7.75;50.96
46111;BME280;31849;55.992;37.252;2022-12-05T12:10:46;101360.91;;;-7.88;50.60
46111;BME280;31849;55.992;37.252;2022-12-05T12:15:59;101358.88;;;-8.08;50.82
46111;BME280;31849;55.992;37.252;2022-12-05T12:21:16;101355.31;;;-8.10;50.76
46111;BME280;31849;55.992;37.252;2022-12-05T12:26:25;101330.22;;;-8.33;50.82
46111;BME280;31849;55.992;37.252;2022-12-05T12:31:41;101337.81;;;-8.33;51.22
46111;BME280;31849;55.992;37.252;2022-12-05T12:36:52;101329.38;;;-8.58;51.32
46111;BME280;31849;55.992;37.252;2022-12-05T12:42:14;101331.59;;;-8.77;51.53
46111;BME280;31849;55.992;37.252;2022-12-05T12:47:28;101320.63;;;-8.78;51.21
46111;BME280;31849;55.992;37.252;2022-12-05T12:52:52;101321.47;;;-8.86;51.97
46111;BME280;31849;55.992;37.252;2022-12-05T12:58:08;101319.84;;;-9.02;51.73
46111;BME280;31849;55.992;37.252;2022-12-05T13:03:19;101319.69;;;-9.03;51.84
46111;BME280;31849;55.992;37.252;2022-12-05T13:08:28;101326.53;;;-9.02;52.33
46111;BME280;31849;55.992;37.252;2022-12-05T13:13:37;101323.84;;;-9.04;51.69
46111;BME280;31849;55.992;37.252;2022-12-05T13:18:43;101320.69;;;-9.10;52.05
46111;BME280;31849;55.992;37.252;2022-12-05T13:23:49;101312.06;;;-9.12;52.41
46111;BME280;31849;55.992;37.252;2022-12-05T13:28:56;101304.50;;;-9.12;52.10
46111;BME280;31849;55.992;37.252;2022-12-05T13:34:02;101302.13;;;-9.10;52.09
46111;BME280;31849;55.992;37.252;2022-12-05T13:39:17;101283.78;;;-9.25;52.59
46111;BME280;31849;55.992;37.252;2022-12-05T13:44:40;101306.84;;;-9.13;52.70
46111;BME280;31849;55.992;37.252;2022-12-05T13:49:49;101307.38;;;-9.25;53.20
46111;BME280;31849;55.992;37.252;2022-12-05T13:54:59;101303.22;;;-9.24;52.78
46111;BME280;31849;55.992;37.252;2022-12-05T14:00:24;101299.56;;;-9.35;53.45
46111;BME280;31849;55.992;37.252;2022-12-05T14:05:37;101305.09;;;-9.30;53.50
46111;BME280;31849;55.992;37.252;2022-12-05T14:11:07;101299.56;;;-9.35;53.76
46111;BME280;31849;55.992;37.252;2022-12-05T14:21:55;101276.81;;;-9.44;53.64
46111;BME280;31849;55.992;37.252;2022-12-05T14:27:07;101271.19;;;-9.41;53.92
46111;BME280;31849;55.992;37.252;2022-12-05T14:32:21;101272.97;;;-9.40;53.95
46111;BME280;31849;55.992;37.252;2022-12-05T14:37:30;101261.69;;;-9.44;54.02
46111;BME280;31849;55.992;37.252;2022-12-05T14:42:39;101255.19;;;-9.42;54.25
46111;BME280;31849;55.992;37.252;2022-12-05T14:47:48;101238.19;;;-9.51;54.69
46111;BME280;31849;55.992;37.252;2022-12-05T14:58:36;101239.28;;;-9.33;53.96
46111;BME280;31849;55.992;37.252;2022-12-05T15:04:02;101242.34;;;-9.36;55.05
46111;BME280;31849;55.992;37.252;2022-12-05T15:09:07;101237.22;;;-9.45;54.97
46111;BME280;31849;55.992;37.252;2022-12-05T15:14:44;101238.94;;;-9.37;54.58
46111;BME280;31849;55.992;37.252;2022-12-05T15:19:52;101219.91;;;-9.42;54.94
46111;BME280;31849;55.992;37.252;2022-12-05T15:25:22;101230.41;;;-9.46;54.94
46111;BME280;31849;55.992;37.252;2022-12-05T15:30:29;101218.81;;;-9.12;54.68
46111;BME280;31849;55.992;37.252;2022-12-05T15:35:33;101215.97;;;-9.15;54.71
46111;BME280;31849;55.992;37.252;2022-12-05T15:40:37;101217.47;;;-9.17;54.68
46111;BME280;31849;55.992;37.252;2022-12-05T15:45:50;101210.13;;;-9.07;55.07
46111;BME280;31849;55.992;37.252;2022-12-05T15:50:53;101204.78;;;-9.01;54.31
46111;BME280;31849;55.992;37.252;2022-12-05T15:56:02;101198.63;;;-8.96;54.98
46111;BME280;31849;55.992;37.252;2022-12-05T16:01:12;101185.91;;;-8.89;54.19
46111;BME280;31849;55.992;37.252;2022-12-05T16:06:21;101183.16;;;-8.74;54.31
46111;BME280;31849;55.992;37.252;2022-12-05T16:11:27;101179.03;;;-8.74;54.12
46111;BME280;31849;55.992;37.252;2022-12-05T16:16:35;101181.88;;;-8.62;54.17
46111;BME280;31849;55.992;37.252;2022-12-05T16:21:42;101169.84;;;-8.64;54.63
46111;BME280;31849;55.992;37.252;2022-12-05T16:26:55;101162.88;;;-8.67;54.41
46111;BME280;31849;55.992;37.252;2022-12-05T16:32:03;101159.69;;;-8.49;54.13
46111;BME280;31849;55.992;37.252;2022-12-05T16:37:16;101158.78;;;-8.40;54.63
46111;BME280;31849;55.992;37.252;2022-12-05T16:42:23;101157.91;;;-8.50;54.80
46111;BME280;31849;55.992;37.252;2022-12-05T16:47:54;101156.44;;;-8.30;54.69
46111;BME280;31849;55.992;37.252;2022-12-05T16:53:09;101149.00;;;-8.37;54.34
46111;BME280;31849;55.992;37.252;2022-12-05T16:58:22;101152.13;;;-8.40;54.32
46111;BME280;31849;55.992;37.252;2022-12-05T17:03:28;101166.97;;;-8.43;54.57
46111;BME280;31849;55.992;37.252;2022-12-05T17:08:36;101154.75;;;-8.56;54.56
46111;BME280;31849;55.992;37.252;2022-12-05T17:13:39;101150.28;;;-8.58;55.03
46111;BME280;31849;55.992;37.252;2022-12-05T17:18:45;101132.72;;;-8.83;55.20
46111;BME280;31849;55.992;37.252;2022-12-05T17:23:49;101136.94;;;-8.99;55.72
46111;BME280;31849;55.992;37.252;2022-12-05T17:28:53;101138.00;;;-8.89;55.43
46111;BME280;31849;55.992;37.252;2022-12-05T17:33:58;101138.81;;;-9.06;55.38
46111;BME280;31849;55.992;37.252;2022-12-05T17:39:02;101145.16;;;-9.09;55.41
46111;BME280;31849;55.992;37.252;2022-12-05T17:44:05;101135.81;;;-9.10;55.76
46111;BME280;31849;55.992;37.252;2022-12-05T17:49:12;101131.78;;;-9.17;56.19
46111;BME280;31849;55.992;37.252;2022-12-05T17:54:16;101121.03;;;-9.32;56.59
46111;BME280;31849;55.992;37.252;2022-12-05T17:59:19;101118.69;;;-9.46;56.39
46111;BME280;31849;55.992;37.252;2022-12-05T18:04:24;101136.50;;;-9.45;56.09
46111;BME280;31849;55.992;37.252;2022-12-05T18:09:28;101124.84;;;-9.60;56.82
46111;BME280;31849;55.992;37.252;2022-12-05T18:14:31;101124.09;;;-9.59;56.27
46111;BME280;31849;55.992;37.252;2022-12-05T18:19:38;101109.75;;;-9.76;56.62
46111;BME280;31849;55.992;37.252;2022-12-05T18:24:42;101111.38;;;-9.77;57.35
46111;BME280;31849;55.992;37.252;2022-12-05T18:29:46;101105.91;;;-9.73;56.57
46111;BME280;31849;55.992;37.252;2022-12-05T18:34:51;101092.59;;;-9.72;57.42
46111;BME280;31849;55.992;37.252;2022-12-05T18:39:55;101079.28;;;-9.46;56.52
46111;BME280;31849;55.992;37.252;2022-12-05T18:44:59;101076.94;;;-9.44;56.46
46111;BME280;31849;55.992;37.252;2022-12-05T18:50:07;101074.41;;;-9.44;57.14
46111;BME280;31849;55.992;37.252;2022-12-05T18:55:11;101075.78;;;-9.39;57.40
46111;BME280;31849;55.992;37.252;2022-12-05T19:00:24;101062.56;;;-9.45;57.33
46111;BME280;31849;55.992;37.252;2022-12-05T19:05:30;101075.78;;;-9.39;56.67
46111;BME280;31849;55.992;37.252;2022-12-05T19:10:36;101066.19;;;-9.34;57.00
46111;BME280;31849;55.992;37.252;2022-12-05T19:15:39;101047.16;;;-9.48;56.47
46111;BME280;31849;55.992;37.252;2022-12-05T19:20:49;101055.53;;;-9.32;56.60
46111;BME280;31849;55.992;37.252;2022-12-05T19:25:54;101058.41;;;-9.45;56.59
46111;BME280;31849;55.992;37.252;2022-12-05T19:30:59;101047.88;;;-9.49;57.18
46111;BME280;31849;55.992;37.252;2022-12-05T19:36:06;101046.34;;;-9.56;56.99
46111;BME280;31849;55.992;37.252;2022-12-05T19:41:15;101034.56;;;-9.48;57.22
46111;BME280;31849;55.992;37.252;2022-12-05T19:46:20;101040.69;;;-9.38;57.39
46111;BME280;31849;55.992;37.252;2022-12-05T19:51:27;101039.25;;;-9.27;56.43
46111;BME280;31849;55.992;37.252;2022-12-05T19:56:32;101035.06;;;-9.35;57.00
46111;BME280;31849;55.992;37.252;2022-12-05T20:01:38;101039.66;;;-9.31;56.40
46111;BME280;31849;55.992;37.252;2022-12-05T20:06:45;101027.38;;;-9.28;56.31
46111;BME280;31849;55.992;37.252;2022-12-05T20:11:49;101025.41;;;-9.39;57.21
46111;BME280;31849;55.992;37.252;2022-12-05T20:16:56;101032.06;;;-9.40;56.70
46111;BME280;31849;55.992;37.252;2022-12-05T20:22:01;101022.34;;;-9.28;57.18
46111;BME280;31849;55.992;37.252;2022-12-05T20:27:05;101029.22;;;-9.18;57.03
46111;BME280;31849;55.992;37.252;2022-12-05T20:32:08;101013.16;;;-9.27;56.56
46111;BME280;31849;55.992;37.252;2022-12-05T20:37:14;101014.78;;;-9.37;57.54
46111;BME280;31849;55.992;37.252;2022-12-05T20:42:17;101011.06;;;-9.31;56.42
46111;BME280;31849;55.992;37.252;2022-12-05T20:47:21;101019.31;;;-9.41;56.92
46111;BME280;31849;55.992;37.252;2022-12-05T20:52:25;101016.03;;;-9.15;56.89
46111;BME280;31849;55.992;37.252;2022-12-05T20:57:29;101013.56;;;-9.07;56.68
46111;BME280;31849;55.992;37.252;2022-12-05T21:02:34;101007.22;;;-8.94;56.73
46111;BME280;31849;55.992;37.252;2022-12-05T21:07:39;101010.47;;;-8.87;56.56
46111;BME280;31849;55.992;37.252;2022-12-05T21:12:43;101010.47;;;-8.95;56.15
46111;BME280;31849;55.992;37.252;2022-12-05T21:17:46;101006.91;;;-8.97;56.86
46111;BME280;31849;55.992;37.252;2022-12-05T21:22:51;100991.38;;;-8.85;56.46
46111;BME280;31849;55.992;37.252;2022-12-05T21:27:54;100991.47;;;-9.00;56.58
46111;BME280;31849;55.992;37.252;2022-12-05T21:32:58;100980.09;;;-8.88;56.12
46111;BME280;31849;55.992;37.252;2022-12-05T21:38:03;100967.28;;;-9.07;56.80
46111;BME280;31849;55.992;37.252;2022-12-05T21:43:06;100952.44;;;-9.13;57.05
46111;BME280;31849;55.992;37.252;2022-12-05T21:48:10;100955.16;;;-9.11;56.73
46111;BME280;31849;55.992;37.252;2022-12-05T21:53:15;100944.13;;;-9.21;56.75
46111;BME280;31849;55.992;37.252;2022-12-05T21:58:18;100942.53;;;-9.11;56.56
46111;BME280;31849;55.992;37.252;2022-12-05T22:03:22;100934.19;;;-9.19;56.90
46111;BME280;31849;55.992;37.252;2022-12-05T22:08:28;100925.34;;;-9.15;56.48
46111;BME280;31849;55.992;37.252;2022-12-05T22:13:32;100920.84;;;-9.27;57.66
46111;BME280;31849;55.992;37.252;2022-12-05T22:18:36;100915.41;;;-9.14;57.47
46111;BME280;31849;55.992;37.252;2022-12-05T22:23:42;100904.13;;;-9.09;57.07
46111;BME280;31849;55.992;37.252;2022-12-05T22:28:47;100901.91;;;-9.06;57.12
46111;BME280;31849;55.992;37.252;2022-12-05T22:33:51;100908.00;;;-9.04;56.44
46111;BME280;31849;55.992;37.252;2022-12-05T22:38:56;100905.94;;;-9.08;57.17
46111;BME280;31849;55.992;37.252;2022-12-05T22:44:00;100905.66;;;-8.93;56.62
46111;BME280;31849;55.992;37.252;2022-12-05T22:49:03;100892.16;;;-8.94;56.86
46111;BME280;31849;55.992;37.252;2022-12-05T22:54:08;100881.88;;;-9.13;56.86
46111;BME280;31849;55.992;37.252;2022-12-05T22:59:12;100885.59;;;-9.18;56.80
46111;BME280;31849;55.992;37.252;2022-12-05T23:04:16;100869.63;;;-9.10;56.53
46111;BME280;31849;55.992;37.252;2022-12-05T23:09:21;100865.59;;;-9.08;56.67
46111;BME280;31849;55.992;37.252;2022-12-05T23:14:26;100852.28;;;-9.07;56.66
46111;BME280;31849;55.992;37.252;2022-12-05T23:19:30;100854.94;;;-8.88;56.00
46111;BME280;31849;55.992;37.252;2022-12-05T23:24:35;100850.94;;;-8.94;56.72
46111;BME280;31849;55.992;37.252;2022-12-05T23:29:38;100842.31;;;-8.88;56.31
46111;BME280;31849;55.992;37.252;2022-12-05T23:34:42;100846.19;;;-8.74;56.46
46111;BME280;31849;55.992;37.252;2022-12-05T23:39:46;100834.03;;;-8.69;56.66
46111;BME280;31849;55.992;37.252;2022-12-05T23:44:50;100818.31;;;-8.84;56.83
46111;BME280;31849;55.992;37.252;2022-12-05T23:49:53;100817.41;;;-8.76;56.04
46111;BME280;31849;55.992;37.252;2022-12-05T23:54:59;100817.25;;;-8.60;55.96
